Time;durP1;ratioP1;P1;durP2;ratioP2;P2;SDS_P1;SDS_P2;PMS_P1;PMS_P2;Temp;Humidity;BMP_temperature;BMP_pressure;BME280_temperature;BME280_humidity;BME280_pressure;Samples;Min_cycle;Max_cycle;Signal;HPM_P1;HPM_P2
2023/03/26 00:06:56;;;;;;;;;;;8.50;99.90;;;;;;8369913;28;19924;-72
2023/03/26 00:10:57;;;;;;;;;;;8.50;99.90;;;;;;8386212;28;20032;-72
2023/03/26 00:15:02;;;;;;;;;;;8.50;99.90;;;;;;8408015;28;19924;-72
2023/03/26 00:19:03;;;;;;;;;;;8.50;99.90;;;;;;8397785;28;19931;-72
2023/03/26 00:23:06;;;;;;;;;;;8.50;99.90;;;;;;8387106;28;20402;-72
2023/03/26 00:27:08;;;;;;;;;;;8.50;99.90;;;;;;8376257;28;19985;-72
2023/03/26 00:31:13;;;;;;;;;;;8.50;99.90;;;;;;8386172;28;20011;-72
2023/03/26 00:35:15;;;;;;;;;;;8.60;99.90;;;;;;8396766;28;19980;-73
2023/03/26 00:39:16;;;;;;;;;;;8.60;99.90;;;;;;8400514;28;19925;-72
2023/03/26 00:43:19;;;;;;;;;;;8.70;99.90;;;;;;8382429;28;20290;-72
2023/03/26 00:47:21;;;;;;;;;;;8.70;99.90;;;;;;8381959;28;20643;-72
2023/03/26 00:51:23;;;;;;;;;;;8.70;99.90;;;;;;8386783;28;19940;-72
2023/03/26 00:55:25;;;;;;;;;;;8.70;99.90;;;;;;8370212;28;19935;-72
2023/03/26 00:59:29;;;;;;;;;;;8.70;99.90;;;;;;8383929;28;19960;-73
2023/03/26 01:03:34;;;;;;;;;;;8.70;99.90;;;;;;8381193;28;19963;-72
2023/03/26 01:07:36;;;;;;;;;;;8.70;99.90;;;;;;8395745;28;19932;-72
2023/03/26 01:11:38;;;;;;;;;;;8.70;99.90;;;;;;8370439;28;19935;-72
2023/03/26 01:15:40;;;;;;;;;;;8.60;99.90;;;;;;8412132;28;20376;-72
2023/03/26 01:20:10;;;;;;;;;;;8.60;99.90;;;;;;8380969;28;19924;-72
2023/03/26 01:24:12;;;;;;;;;;;8.60;99.90;;;;;;8379932;28;19925;-72
2023/03/26 01:28:16;;;;;;;;;;;8.50;99.90;;;;;;8382985;28;20015;-72
2023/03/26 01:32:20;;;;;;;;;;;8.60;99.90;;;;;;8369080;28;20009;-72
2023/03/26 01:46:34;;;;;;;;;;;8.60;99.90;;;;;;8365134;28;19919;-72
2023/03/26 01:50:36;;;;;;;;;;;8.60;99.90;;;;;;8395246;28;20003;-72
2023/03/26 01:54:38;;;;;;;;;;;8.70;99.90;;;;;;8394054;28;19925;-72
2023/03/26 01:58:57;;;;;;;;;;;8.70;99.90;;;;;;8403733;28;19930;-72
2023/03/26 02:03:18;;;;;;;;;;;8.70;99.90;;;;;;8373734;28;19925;-72
2023/03/26 02:07:22;;;;;;;;;;;8.80;99.90;;;;;;8378487;28;20482;-72
2023/03/26 02:11:24;;;;;;;;;;;8.80;99.90;;;;;;8385948;28;20376;-73
2023/03/26 02:15:35;;;;;;;;;;;8.80;99.90;;;;;;8387556;28;19924;-72
2023/03/26 02:19:41;;;;;;;;;;;8.80;99.90;;;;;;8382443;28;20389;-72
2023/03/26 02:23:45;;;;;;;;;;;8.80;99.90;;;;;;8395226;28;20008;-72
2023/03/26 02:27:48;;;;;;;;;;;8.80;99.90;;;;;;8381237;28;19932;-72
2023/03/26 02:31:50;;;;;;;;;;;8.80;99.90;;;;;;8383714;28;19929;-73
2023/03/26 02:35:51;;;;;;;;;;;8.80;99.90;;;;;;8376717;28;19924;-72
2023/03/26 02:39:54;;;;;;;;;;;8.80;99.90;;;;;;8393037;28;19924;-72
2023/03/26 02:43:55;;;;;;;;;;;8.80;99.90;;;;;;8398701;28;20396;-72
2023/03/26 02:47:59;;;;;;;;;;;8.80;99.90;;;;;;8391392;28;19928;-72
2023/03/26 02:52:05;;;;;;;;;;;8.90;99.90;;;;;;8391448;28;19931;-73
2023/03/26 02:56:08;;;;;;;;;;;8.90;99.90;;;;;;8388255;28;19931;-72
2023/03/26 03:00:12;;;;;;;;;;;8.80;99.90;;;;;;8390856;28;19929;-72
2023/03/26 03:04:14;;;;;;;;;;;8.90;99.90;;;;;;8393992;28;19931;-72
2023/03/26 03:08:17;;;;;;;;;;;8.80;99.90;;;;;;8409759;28;19929;-73
2023/03/26 03:12:19;;;;;;;;;;;8.80;99.90;;;;;;8394103;28;19940;-73
2023/03/26 03:16:20;;;;;;;;;;;8.80;99.90;;;;;;8396491;28;19924;-72
2023/03/26 03:20:22;;;;;;;;;;;8.80;99.90;;;;;;8393864;28;19925;-72
2023/03/26 03:24:25;;;;;;;;;;;8.80;99.90;;;;;;8397456;28;19956;-72
2023/03/26 03:28:27;;;;;;;;;;;8.80;99.90;;;;;;8391097;28;19931;-72
2023/03/26 03:32:29;;;;;;;;;;;8.80;99.90;;;;;;8382401;28;19925;-72
2023/03/26 03:36:32;;;;;;;;;;;8.80;99.90;;;;;;8384126;28;19936;-73
2023/03/26 03:40:34;;;;;;;;;;;8.80;99.90;;;;;;8392469;28;19925;-73
2023/03/26 03:49:39;;;;;;;;;;;8.80;99.90;;;;;;8393430;28;20331;-72
2023/03/26 03:53:41;;;;;;;;;;;8.80;99.90;;;;;;8389598;28;20000;-72
2023/03/26 03:57:42;;;;;;;;;;;8.80;99.90;;;;;;8389824;28;19924;-72
2023/03/26 04:01:45;;;;;;;;;;;8.80;99.90;;;;;;8387229;28;19928;-72
2023/03/26 04:05:53;;;;;;;;;;;8.80;99.90;;;;;;8392669;28;19975;-72
2023/03/26 04:09:56;;;;;;;;;;;8.80;99.90;;;;;;8374343;28;19980;-72
2023/03/26 04:13:58;;;;;;;;;;;8.90;99.90;;;;;;8395499;28;19973;-72
2023/03/26 04:17:59;;;;;;;;;;;8.90;99.90;;;;;;8378830;28;20284;-72
2023/03/26 04:22:01;;;;;;;;;;;8.90;99.90;;;;;;8378401;28;19928;-72
2023/03/26 04:31:32;;;;;;;;;;;8.90;99.90;;;;;;8392894;28;19920;-72
2023/03/26 04:35:34;;;;;;;;;;;8.90;99.90;;;;;;8391495;28;19924;-72
2023/03/26 04:39:37;;;;;;;;;;;8.90;99.90;;;;;;8392328;28;19928;-73
2023/03/26 04:43:46;;;;;;;;;;;8.90;99.90;;;;;;8385629;28;19924;-72
2023/03/26 04:47:49;;;;;;;;;;;8.90;99.90;;;;;;8389779;28;19981;-72
2023/03/26 04:51:50;;;;;;;;;;;8.90;99.90;;;;;;8393827;28;19924;-72
2023/03/26 04:56:05;;;;;;;;;;;8.90;99.90;;;;;;8384728;28;20021;-72
2023/03/26 05:00:17;;;;;;;;;;;8.90;99.90;;;;;;8373704;28;19975;-72
2023/03/26 05:04:19;;;;;;;;;;;8.90;99.90;;;;;;8382149;28;19939;-72
2023/03/26 05:08:21;;;;;;;;;;;8.90;99.90;;;;;;8405150;28;19925;-72
2023/03/26 05:12:22;;;;;;;;;;;8.80;99.90;;;;;;8378683;28;19924;-72
2023/03/26 05:16:25;;;;;;;;;;;8.80;99.90;;;;;;8387947;28;20149;-72
2023/03/26 05:20:29;;;;;;;;;;;8.80;99.90;;;;;;8385639;28;19924;-72
2023/03/26 05:24:30;;;;;;;;;;;8.80;99.90;;;;;;8358146;28;19947;-73
2023/03/26 05:28:32;;;;;;;;;;;8.80;99.90;;;;;;8386699;28;20407;-72
2023/03/26 05:32:38;;;;;;;;;;;8.70;99.90;;;;;;8384084;28;20307;-72
2023/03/26 05:36:41;;;;;;;;;;;8.70;99.90;;;;;;8383895;28;19963;-73
2023/03/26 05:40:42;;;;;;;;;;;8.70;99.90;;;;;;8382189;28;19964;-73
2023/03/26 05:44:44;;;;;;;;;;;8.70;99.90;;;;;;8376711;28;19971;-73
2023/03/26 05:48:46;;;;;;;;;;;8.70;99.90;;;;;;8361338;28;19931;-73
2023/03/26 05:52:47;;;;;;;;;;;8.60;99.90;;;;;;8363150;28;19931;-72
2023/03/26 05:56:49;;;;;;;;;;;8.60;99.90;;;;;;8362659;28;19956;-73
2023/03/26 06:01:04;;;;;;;;;;;8.70;99.90;;;;;;8383496;28;19925;-73
2023/03/26 06:05:06;;;;;;;;;;;8.60;99.90;;;;;;8378420;28;20277;-72
2023/03/26 06:09:08;;;;;;;;;;;8.60;99.90;;;;;;8386631;28;19952;-72
2023/03/26 06:13:10;;;;;;;;;;;8.60;99.90;;;;;;8381400;28;19979;-73
2023/03/26 06:17:12;;;;;;;;;;;8.60;99.90;;;;;;8391140;28;19924;-72
2023/03/26 06:21:14;;;;;;;;;;;8.60;99.90;;;;;;8368904;28;19931;-73
2023/03/26 06:25:15;;;;;;;;;;;8.60;99.90;;;;;;8397302;28;19974;-73
2023/03/26 06:29:17;;;;;;;;;;;8.60;99.90;;;;;;8375686;28;19928;-72
2023/03/26 06:33:19;;;;;;;;;;;8.60;99.90;;;;;;8392845;28;19931;-73
2023/03/26 06:37:22;;;;;;;;;;;8.70;99.90;;;;;;8411092;28;19932;-73
2023/03/26 06:41:24;;;;;;;;;;;8.70;99.90;;;;;;8379277;28;19958;-73
2023/03/26 06:45:26;;;;;;;;;;;8.70;99.90;;;;;;8385786;28;19963;-72
2023/03/26 06:49:28;;;;;;;;;;;8.70;99.90;;;;;;8390231;28;19925;-73
2023/03/26 06:53:30;;;;;;;;;;;8.70;99.90;;;;;;8392464;28;19965;-72
2023/03/26 06:57:31;;;;;;;;;;;8.70;99.90;;;;;;8369195;28;20500;-73
2023/03/26 07:01:33;;;;;;;;;;;8.80;99.90;;;;;;8380836;28;20372;-73
2023/03/26 07:05:35;;;;;;;;;;;8.80;99.90;;;;;;8382503;28;19932;-73
2023/03/26 07:09:36;;;;;;;;;;;8.80;99.90;;;;;;8380229;28;20277;-73
2023/03/26 07:13:38;;;;;;;;;;;8.80;99.90;;;;;;8385535;28;19932;-72
2023/03/26 07:17:40;;;;;;;;;;;8.90;99.90;;;;;;8393203;28;19925;-73
2023/03/26 07:21:42;;;;;;;;;;;8.90;99.90;;;;;;8394928;28;20364;-73
2023/03/26 07:25:44;;;;;;;;;;;9.00;99.90;;;;;;8395085;28;19924;-72
2023/03/26 07:29:55;;;;;;;;;;;9.00;99.90;;;;;;8374676;28;20379;-72
2023/03/26 07:34:17;;;;;;;;;;;9.10;99.90;;;;;;8393348;28;19928;-72
2023/03/26 07:38:27;;;;;;;;;;;9.10;99.90;;;;;;8390357;28;20023;-73
2023/03/26 07:42:28;;;;;;;;;;;9.10;99.90;;;;;;8380954;28;20387;-73
2023/03/26 07:46:31;;;;;;;;;;;9.20;99.90;;;;;;8381823;28;19975;-73
2023/03/26 07:50:32;;;;;;;;;;;9.20;99.90;;;;;;8383796;28;20325;-73
2023/03/26 07:54:34;;;;;;;;;;;9.30;99.90;;;;;;8387899;28;19928;-73
2023/03/26 07:58:50;;;;;;;;;;;9.40;99.90;;;;;;8380991;28;19939;-72
2023/03/26 08:02:58;;;;;;;;;;;9.40;99.90;;;;;;8364311;28;20027;-72
2023/03/26 08:07:23;;;;;;;;;;;9.50;99.90;;;;;;8385787;28;19931;-73
2023/03/26 08:11:37;;;;;;;;;;;9.60;99.90;;;;;;8384974;28;20024;-73
2023/03/26 08:15:52;;;;;;;;;;;9.70;99.90;;;;;;8383421;28;20015;-72
2023/03/26 08:20:12;;;;;;;;;;;9.70;99.90;;;;;;8365240;28;19939;-73
2023/03/26 08:24:25;;;;;;;;;;;9.80;99.90;;;;;;8395279;28;19932;-73
2023/03/26 08:28:51;;;;;;;;;;;9.90;99.90;;;;;;8375703;28;20273;-73
2023/03/26 08:32:55;;;;;;;;;;;10.00;99.90;;;;;;8375969;28;20385;-72
2023/03/26 08:36:56;;;;;;;;;;;10.00;99.90;;;;;;8378832;28;19935;-73
2023/03/26 08:41:04;;;;;;;;;;;10.00;99.90;;;;;;8376603;28;19929;-72
2023/03/26 08:45:24;;;;;;;;;;;10.00;99.90;;;;;;8382702;28;19929;-72
2023/03/26 08:49:40;;;;;;;;;;;9.90;99.90;;;;;;8368684;28;19990;-72
2023/03/26 08:53:51;;;;;;;;;;;9.90;99.90;;;;;;8392038;28;19924;-72
2023/03/26 08:58:11;;;;;;;;;;;9.80;99.90;;;;;;8392114;28;19928;-73
2023/03/26 09:02:28;;;;;;;;;;;9.70;99.90;;;;;;8403006;28;19959;-73
2023/03/26 09:06:41;;;;;;;;;;;9.70;99.90;;;;;;8384572;28;20011;-73
2023/03/26 09:10:46;;;;;;;;;;;9.70;99.90;;;;;;8383706;28;19929;-72
2023/03/26 09:14:56;;;;;;;;;;;9.70;99.90;;;;;;8393192;28;19929;-72
2023/03/26 09:18:58;;;;;;;;;;;9.70;99.90;;;;;;8391185;28;20355;-72
2023/03/26 09:23:08;;;;;;;;;;;9.60;99.90;;;;;;8393684;28;19930;-72
2023/03/26 09:27:24;;;;;;;;;;;9.60;99.90;;;;;;8385846;28;19929;-73
2023/03/26 09:31:41;;;;;;;;;;;9.50;99.90;;;;;;8405987;28;19971;-72
2023/03/26 09:35:50;;;;;;;;;;;9.50;99.90;;;;;;8369337;28;19931;-73
2023/03/26 09:40:11;;;;;;;;;;;9.40;99.90;;;;;;8386705;28;20445;-72
2023/03/26 09:44:12;;;;;;;;;;;9.40;99.90;;;;;;8390909;28;19925;-72
2023/03/26 09:48:14;;;;;;;;;;;9.40;99.90;;;;;;8381904;28;20360;-72
2023/03/26 09:52:26;;;;;;;;;;;9.50;99.90;;;;;;8405590;28;19924;-72
2023/03/26 09:56:37;;;;;;;;;;;9.50;99.90;;;;;;8362143;28;20323;-72
2023/03/26 10:00:48;;;;;;;;;;;9.60;99.90;;;;;;8402420;28;19925;-72
2023/03/26 10:05:09;;;;;;;;;;;9.60;99.90;;;;;;8391030;28;19929;-72
2023/03/26 10:09:22;;;;;;;;;;;9.70;99.90;;;;;;8386365;28;20011;-72
2023/03/26 10:13:28;;;;;;;;;;;9.70;99.90;;;;;;8388009;28;19946;-72
2023/03/26 10:17:37;;;;;;;;;;;9.70;99.90;;;;;;8385561;28;19933;-73
2023/03/26 10:21:50;;;;;;;;;;;9.80;99.90;;;;;;8380244;28;19925;-72
2023/03/26 10:26:04;;;;;;;;;;;9.80;99.90;;;;;;8384187;28;19971;-73
2023/03/26 10:30:29;;;;;;;;;;;9.80;99.90;;;;;;8372598;28;19931;-72
2023/03/26 10:34:50;;;;;;;;;;;9.90;99.90;;;;;;8391831;28;19925;-72
2023/03/26 10:38:55;;;;;;;;;;;9.90;99.90;;;;;;8373225;28;20386;-72
2023/03/26 10:43:15;;;;;;;;;;;10.00;99.90;;;;;;8376039;28;19985;-72
2023/03/26 10:47:25;;;;;;;;;;;10.00;99.90;;;;;;8392046;28;20380;-72
2023/03/26 10:51:33;;;;;;;;;;;10.00;99.90;;;;;;8383213;28;20387;-72
2023/03/26 10:55:39;;;;;;;;;;;10.00;99.90;;;;;;8389253;28;19930;-72
2023/03/26 10:59:40;;;;;;;;;;;10.00;99.90;;;;;;8368091;28;19924;-72
2023/03/26 11:03:45;;;;;;;;;;;10.00;99.90;;;;;;8393863;28;19924;-72
2023/03/26 11:07:53;;;;;;;;;;;9.90;99.90;;;;;;8391188;28;19931;-72
2023/03/26 11:12:15;;;;;;;;;;;9.90;99.90;;;;;;8374735;28;19960;-73
2023/03/26 11:16:50;;;;;;;;;;;9.80;99.90;;;;;;8389904;28;19932;-72
2023/03/26 11:21:10;;;;;;;;;;;9.70;99.90;;;;;;8371672;28;20377;-72
2023/03/26 11:25:23;;;;;;;;;;;9.60;99.90;;;;;;8390928;28;19994;-72
2023/03/26 11:29:28;;;;;;;;;;;9.60;99.90;;;;;;8383331;28;19931;-72
2023/03/26 11:33:38;;;;;;;;;;;9.60;99.90;;;;;;8397675;28;19947;-72
2023/03/26 11:37:49;;;;;;;;;;;9.60;99.90;;;;;;8394831;28;19925;-73
2023/03/26 11:41:53;;;;;;;;;;;9.60;99.90;;;;;;8365938;28;19929;-72
2023/03/26 11:45:55;;;;;;;;;;;9.50;99.90;;;;;;8359021;28;20718;-72
2023/03/26 11:49:57;;;;;;;;;;;9.40;99.90;;;;;;8357607;28;19928;-71
2023/03/26 11:54:00;;;;;;;;;;;9.40;99.90;;;;;;8356911;28;19935;-72
2023/03/26 11:58:03;;;;;;;;;;;9.40;99.90;;;;;;8352929;28;20446;-72
2023/03/26 12:02:08;;;;;;;;;;;9.40;99.90;;;;;;8356937;28;19936;-73
2023/03/26 12:06:22;;;;;;;;;;;9.50;99.90;;;;;;8353546;28;19929;-72
2023/03/26 12:10:37;;;;;;;;;;;9.50;99.90;;;;;;8333514;28;20019;-72
2023/03/26 12:14:41;;;;;;;;;;;9.50;99.90;;;;;;8359532;28;20276;-72
2023/03/26 12:18:44;;;;;;;;;;;9.40;99.90;;;;;;8358003;28;19924;-72
2023/03/26 12:22:45;;;;;;;;;;;9.40;99.90;;;;;;8357698;28;19943;-72
2023/03/26 12:26:54;;;;;;;;;;;9.40;99.90;;;;;;8353672;28;20353;-72
2023/03/26 12:31:03;;;;;;;;;;;9.40;99.90;;;;;;8365426;28;19941;-73
2023/03/26 12:35:06;;;;;;;;;;;9.40;99.90;;;;;;8328037;28;19933;-72
2023/03/26 12:39:24;;;;;;;;;;;9.50;99.90;;;;;;8322659;28;20807;-72
2023/03/26 12:43:50;;;;;;;;;;;9.50;99.90;;;;;;8327225;28;19925;-72
2023/03/26 12:48:12;;;;;;;;;;;9.60;99.90;;;;;;8325094;28;19943;-72
2023/03/26 12:52:28;;;;;;;;;;;9.80;99.90;;;;;;8323643;28;22173;-72
2023/03/26 12:56:49;;;;;;;;;;;9.90;99.90;;;;;;8356538;28;19928;-72
2023/03/26 13:01:26;;;;;;;;;;;10.10;99.90;;;;;;8325466;28;20380;-72
2023/03/26 13:05:40;;;;;;;;;;;10.30;99.90;;;;;;8319409;28;19952;-72
2023/03/26 13:10:02;;;;;;;;;;;10.50;99.90;;;;;;8354321;28;19931;-73
2023/03/26 13:14:07;;;;;;;;;;;10.70;99.90;;;;;;8327070;28;19977;-72
2023/03/26 13:18:20;;;;;;;;;;;10.90;99.90;;;;;;8326439;28;19925;-72
2023/03/26 13:22:26;;;;;;;;;;;11.10;99.90;;;;;;8320617;28;20016;-73
2023/03/26 13:26:28;;;;;;;;;;;11.10;99.90;;;;;;8319649;28;20027;-72
2023/03/26 13:30:43;;;;;;;;;;;11.20;99.90;;;;;;8325046;28;19972;-73
2023/03/26 13:35:08;;;;;;;;;;;11.20;99.90;;;;;;8347507;28;19929;-73
2023/03/26 13:39:26;;;;;;;;;;;11.20;99.90;;;;;;8340258;28;20007;-72
2023/03/26 13:43:33;;;;;;;;;;;11.20;99.90;;;;;;8359846;28;20406;-73
2023/03/26 13:47:37;;;;;;;;;;;11.10;99.90;;;;;;8352483;28;19963;-73
2023/03/26 13:51:40;;;;;;;;;;;11.10;99.90;;;;;;8340655;28;19932;-73
2023/03/26 13:55:51;;;;;;;;;;;11.10;99.90;;;;;;8353667;28;20018;-73
2023/03/26 13:59:58;;;;;;;;;;;11.20;99.90;;;;;;8355138;28;19936;-73
2023/03/26 14:04:20;;;;;;;;;;;11.20;99.90;;;;;;8383786;28;19964;-73
2023/03/26 14:08:34;;;;;;;;;;;11.20;99.90;;;;;;8356416;28;20356;-73
2023/03/26 14:12:47;;;;;;;;;;;11.30;99.90;;;;;;8360185;28;19929;-73
2023/03/26 14:16:52;;;;;;;;;;;11.40;99.90;;;;;;8354024;28;19935;-73
2023/03/26 14:21:33;;;;;;;;;;;11.40;99.90;;;;;;8359291;28;19939;-73
2023/03/26 14:25:34;;;;;;;;;;;11.30;99.90;;;;;;8321431;28;19924;-73
2023/03/26 14:29:36;;;;;;;;;;;11.30;99.90;;;;;;8335098;28;19987;-73
2023/03/26 14:33:51;;;;;;;;;;;11.20;99.90;;;;;;8363908;28;19933;-72
2023/03/26 14:38:12;;;;;;;;;;;11.10;99.90;;;;;;8360028;28;19933;-73
2023/03/26 14:42:23;;;;;;;;;;;11.00;99.90;;;;;;8375025;28;19956;-73
2023/03/26 14:46:25;;;;;;;;;;;10.80;99.90;;;;;;8361540;28;19979;-73
2023/03/26 14:50:45;;;;;;;;;;;10.70;99.90;;;;;;8359589;28;19983;-73
2023/03/26 14:54:48;;;;;;;;;;;10.70;99.90;;;;;;8362097;28;19934;-73
2023/03/26 14:59:08;;;;;;;;;;;10.60;99.90;;;;;;8373590;28;20394;-73
2023/03/26 15:03:28;;;;;;;;;;;10.50;99.90;;;;;;8375798;28;19925;-73
2023/03/26 15:07:46;;;;;;;;;;;10.50;99.90;;;;;;8363018;28;19968;-73
2023/03/26 15:12:08;;;;;;;;;;;10.50;99.90;;;;;;8369379;28;20213;-73
2023/03/26 15:16:13;;;;;;;;;;;10.50;99.90;;;;;;8364640;28;19952;-73
2023/03/26 15:20:30;;;;;;;;;;;10.60;99.90;;;;;;8366457;28;19924;-73
2023/03/26 15:24:41;;;;;;;;;;;10.70;99.90;;;;;;8367743;28;19971;-73
2023/03/26 15:29:03;;;;;;;;;;;10.80;99.90;;;;;;8374552;28;19935;-73
2023/03/26 15:33:33;;;;;;;;;;;10.80;99.90;;;;;;8348400;28;19928;-73
2023/03/26 15:37:49;;;;;;;;;;;11.00;99.90;;;;;;8373564;28;19935;-73
2023/03/26 15:42:11;;;;;;;;;;;11.10;99.90;;;;;;8365013;28;19935;-73
2023/03/26 15:46:23;;;;;;;;;;;11.10;99.90;;;;;;8362953;28;19925;-73
2023/03/26 15:50:25;;;;;;;;;;;11.10;99.90;;;;;;8363545;28;19929;-73
2023/03/26 15:54:37;;;;;;;;;;;11.00;99.90;;;;;;8361629;28;20011;-73
2023/03/26 15:58:43;;;;;;;;;;;10.70;99.90;;;;;;8362778;28;19987;-73
2023/03/26 16:02:52;;;;;;;;;;;10.60;99.90;;;;;;8380079;28;20372;-73
2023/03/26 16:06:57;;;;;;;;;;;10.40;99.90;;;;;;8369578;28;20420;-73
2023/03/26 16:10:59;;;;;;;;;;;10.30;99.90;;;;;;8362539;28;19990;-73
2023/03/26 16:15:18;;;;;;;;;;;10.20;99.90;;;;;;8362995;28;19933;-73
2023/03/26 16:19:20;;;;;;;;;;;10.10;99.90;;;;;;8363825;28;19933;-73
2023/03/26 16:23:52;;;;;;;;;;;10.00;99.90;;;;;;8376388;28;19925;-73
2023/03/26 16:28:09;;;;;;;;;;;9.80;99.90;;;;;;8362836;28;19924;-73
2023/03/26 16:32:27;;;;;;;;;;;9.70;99.90;;;;;;8356922;28;19955;-73
2023/03/26 16:36:36;;;;;;;;;;;9.60;99.90;;;;;;8361883;28;20016;-73
2023/03/26 16:40:49;;;;;;;;;;;9.50;99.90;;;;;;8356898;28;20459;-73
2023/03/26 16:44:58;;;;;;;;;;;9.40;99.90;;;;;;8355190;28;19932;-73
2023/03/26 16:49:00;;;;;;;;;;;9.40;99.90;;;;;;8371765;28;19933;-73
2023/03/26 16:53:12;;;;;;;;;;;9.30;99.90;;;;;;8357749;28;19929;-73
2023/03/26 16:57:21;;;;;;;;;;;9.30;99.90;;;;;;8364667;28;19932;-73
2023/03/26 17:01:29;;;;;;;;;;;9.20;99.90;;;;;;8357656;28;19931;-73
2023/03/26 17:05:40;;;;;;;;;;;9.00;99.90;;;;;;8356500;28;19979;-73
2023/03/26 17:09:57;;;;;;;;;;;8.90;99.90;;;;;;8359053;28;19940;-73
2023/03/26 17:14:02;;;;;;;;;;;8.90;99.90;;;;;;8352669;28;19951;-72
2023/03/26 17:18:22;;;;;;;;;;;9.20;99.90;;;;;;8357277;28;20368;-73
2023/03/26 17:22:36;;;;;;;;;;;9.50;99.90;;;;;;8358826;28;19929;-73
2023/03/26 17:26:43;;;;;;;;;;;9.50;99.90;;;;;;8357205;28;20346;-73
2023/03/26 17:30:48;;;;;;;;;;;9.30;99.90;;;;;;8357229;28;20365;-73
2023/03/26 17:34:50;;;;;;;;;;;9.10;99.90;;;;;;8367489;28;19931;-73
2023/03/26 17:38:54;;;;;;;;;;;9.00;99.90;;;;;;8369857;28;20394;-73
2023/03/26 17:43:00;;;;;;;;;;;8.80;99.90;;;;;;8363278;28;19924;-73
2023/03/26 17:47:05;;;;;;;;;;;8.60;99.90;;;;;;8335776;28;20014;-72
2023/03/26 17:51:26;;;;;;;;;;;8.50;99.90;;;;;;8368740;28;19932;-73
2023/03/26 17:55:32;;;;;;;;;;;8.40;99.90;;;;;;8355593;28;19931;-73
2023/03/26 17:59:36;;;;;;;;;;;8.30;99.90;;;;;;8355138;28;19942;-73
2023/03/26 18:03:48;;;;;;;;;;;8.30;99.90;;;;;;8358068;28;20051;-72
2023/03/26 18:08:00;;;;;;;;;;;8.30;99.90;;;;;;8364529;28;19980;-73
2023/03/26 18:12:26;;;;;;;;;;;8.20;99.90;;;;;;8368491;28;19940;-73
2023/03/26 18:16:42;;;;;;;;;;;8.20;99.90;;;;;;8363895;28;19948;-73
2023/03/26 18:20:45;;;;;;;;;;;8.10;99.90;;;;;;8343199;28;20434;-73
2023/03/26 18:24:47;;;;;;;;;;;8.00;99.90;;;;;;8356327;28;19955;-73
2023/03/26 18:29:07;;;;;;;;;;;7.80;99.90;;;;;;8368802;28;19936;-73
2023/03/26 18:33:12;;;;;;;;;;;7.60;99.90;;;;;;8355609;28;19940;-73
2023/03/26 18:37:18;;;;;;;;;;;7.50;99.90;;;;;;8365410;28;19970;-73
2023/03/26 18:41:30;;;;;;;;;;;7.40;99.90;;;;;;8373168;28;19925;-73
2023/03/26 18:45:33;;;;;;;;;;;7.50;99.90;;;;;;8369116;28;20291;-73
2023/03/26 18:49:35;;;;;;;;;;;7.50;99.90;;;;;;8365991;28;19925;-73
2023/03/26 18:53:46;;;;;;;;;;;7.60;99.90;;;;;;8355517;28;19931;-73
2023/03/26 18:57:49;;;;;;;;;;;7.60;99.90;;;;;;8348438;28;19932;-74
2023/03/26 19:01:51;;;;;;;;;;;7.60;99.90;;;;;;8362586;28;20027;-73
2023/03/26 19:05:54;;;;;;;;;;;7.60;99.90;;;;;;8361532;28;19925;-73
2023/03/26 19:09:59;;;;;;;;;;;7.60;99.90;;;;;;8363803;28;19971;-73
2023/03/26 19:14:06;;;;;;;;;;;7.60;99.90;;;;;;8365557;28;19929;-73
2023/03/26 19:18:13;;;;;;;;;;;7.50;99.90;;;;;;8379485;28;20364;-73
2023/03/26 19:22:15;;;;;;;;;;;7.40;99.90;;;;;;8371213;28;19954;-73
2023/03/26 19:26:17;;;;;;;;;;;7.30;99.90;;;;;;8366142;28;19939;-73
2023/03/26 19:30:29;;;;;;;;;;;7.20;99.90;;;;;;8356299;28;19933;-74
2023/03/26 19:34:37;;;;;;;;;;;7.10;99.90;;;;;;8375694;28;19933;-74
2023/03/26 19:38:57;;;;;;;;;;;7.00;99.90;;;;;;8362861;28;19960;-73
2023/03/26 19:43:00;;;;;;;;;;;6.90;99.90;;;;;;8359732;28;20009;-73
2023/03/26 19:47:06;;;;;;;;;;;6.80;99.90;;;;;;8364995;28;20028;-73
2023/03/26 19:51:16;;;;;;;;;;;6.70;99.90;;;;;;8366656;28;19935;-74
2023/03/26 19:55:21;;;;;;;;;;;6.60;99.90;;;;;;8367677;28;20340;-74
2023/03/26 19:59:23;;;;;;;;;;;6.50;99.90;;;;;;8352335;28;19925;-73
2023/03/26 20:03:36;;;;;;;;;;;6.40;99.90;;;;;;8364625;28;20011;-74
2023/03/26 20:07:38;;;;;;;;;;;6.30;99.90;;;;;;8360429;28;19924;-73
2023/03/26 20:11:40;;;;;;;;;;;6.30;99.90;;;;;;8362866;28;19932;-74
2023/03/26 20:15:47;;;;;;;;;;;6.20;99.90;;;;;;8348039;28;19939;-73
2023/03/26 20:19:50;;;;;;;;;;;6.20;99.90;;;;;;8363061;28;19974;-73
2023/03/26 20:23:54;;;;;;;;;;;6.20;99.90;;;;;;8362658;28;20389;-73
2023/03/26 20:27:57;;;;;;;;;;;6.10;99.90;;;;;;8377658;28;19963;-74
2023/03/26 20:31:59;;;;;;;;;;;6.20;99.90;;;;;;8376896;28;19936;-73
2023/03/26 20:36:01;;;;;;;;;;;6.20;99.90;;;;;;8364310;28;19932;-74
2023/03/26 20:40:05;;;;;;;;;;;6.20;99.90;;;;;;8381193;28;19925;-73
2023/03/26 20:44:12;;;;;;;;;;;6.30;99.90;;;;;;8366029;28;19931;-74
2023/03/26 20:48:13;;;;;;;;;;;6.30;99.90;;;;;;8362012;28;19933;-73
2023/03/26 20:52:17;;;;;;;;;;;6.30;99.90;;;;;;8337875;28;19924;-73
2023/03/26 20:56:19;;;;;;;;;;;6.30;99.90;;;;;;8361347;28;21668;-73
2023/03/26 21:00:22;;;;;;;;;;;6.30;99.90;;;;;;8365118;28;19929;-73
2023/03/26 21:04:24;;;;;;;;;;;6.20;99.90;;;;;;8374475;28;19931;-73
2023/03/26 21:08:32;;;;;;;;;;;6.20;99.90;;;;;;8389064;28;19925;-73
2023/03/26 21:12:41;;;;;;;;;;;6.10;99.90;;;;;;8379659;28;19931;-74
2023/03/26 21:16:42;;;;;;;;;;;6.10;99.90;;;;;;8361686;28;19940;-73
2023/03/26 21:20:45;;;;;;;;;;;6.00;99.90;;;;;;8397051;28;20422;-73
2023/03/26 21:24:47;;;;;;;;;;;6.00;99.90;;;;;;8388094;28;19940;-73
2023/03/26 21:28:49;;;;;;;;;;;5.90;99.90;;;;;;8380276;28;19940;-73
2023/03/26 21:32:51;;;;;;;;;;;5.80;99.90;;;;;;8376962;28;19933;-74
2023/03/26 21:36:53;;;;;;;;;;;5.80;99.90;;;;;;8371391;28;19940;-73
2023/03/26 21:40:55;;;;;;;;;;;5.70;99.90;;;;;;8354812;28;19964;-73
2023/03/26 21:44:59;;;;;;;;;;;5.70;99.90;;;;;;8376596;28;20434;-73
2023/03/26 21:49:01;;;;;;;;;;;5.60;99.90;;;;;;8365684;28;20403;-73
2023/03/26 21:53:03;;;;;;;;;;;5.60;99.90;;;;;;8401270;28;19928;-73
2023/03/26 21:57:29;;;;;;;;;;;5.50;99.90;;;;;;8399878;28;19933;-73
2023/03/26 22:01:51;;;;;;;;;;;5.50;99.90;;;;;;8381862;28;19987;-73
2023/03/26 22:06:02;;;;;;;;;;;5.40;99.90;;;;;;8376988;28;20345;-73
2023/03/26 22:10:04;;;;;;;;;;;5.40;99.90;;;;;;8381766;28;19925;-73
2023/03/26 22:14:05;;;;;;;;;;;5.30;99.90;;;;;;8373265;28;20358;-73
2023/03/26 22:18:07;;;;;;;;;;;5.40;99.90;;;;;;8377891;28;19972;-73
2023/03/26 22:22:09;;;;;;;;;;;5.40;99.90;;;;;;8390091;28;19968;-73
2023/03/26 22:26:11;;;;;;;;;;;5.40;99.90;;;;;;8385616;28;19928;-73
2023/03/26 22:30:13;;;;;;;;;;;5.40;99.90;;;;;;8362227;28;19976;-73
2023/03/26 22:34:15;;;;;;;;;;;5.50;99.90;;;;;;8378533;28;19996;-73
2023/03/26 22:38:17;;;;;;;;;;;5.50;99.90;;;;;;8383272;28;19932;-73
2023/03/26 22:42:18;;;;;;;;;;;5.50;99.90;;;;;;8372407;28;19963;-73
2023/03/26 22:46:20;;;;;;;;;;;5.50;99.90;;;;;;8377047;28;19979;-73
2023/03/26 22:50:22;;;;;;;;;;;5.40;99.90;;;;;;8381497;28;19924;-73
2023/03/26 22:54:25;;;;;;;;;;;5.50;99.90;;;;;;8355047;28;20287;-73
2023/03/26 22:58:27;;;;;;;;;;;5.50;99.90;;;;;;8386117;28;19939;-73
2023/03/26 23:02:28;;;;;;;;;;;5.50;99.90;;;;;;8373182;28;19939;-73
2023/03/26 23:06:30;;;;;;;;;;;5.40;99.90;;;;;;8393943;28;19924;-73
2023/03/26 23:10:32;;;;;;;;;;;5.40;99.90;;;;;;8387985;28;19932;-73
2023/03/26 23:14:35;;;;;;;;;;;5.30;99.90;;;;;;8376741;28;19968;-73
2023/03/26 23:18:37;;;;;;;;;;;5.30;99.90;;;;;;8384681;28;19924;-73
2023/03/26 23:22:39;;;;;;;;;;;5.20;99.90;;;;;;8387265;28;19924;-73
2023/03/26 23:26:41;;;;;;;;;;;5.20;99.90;;;;;;8396939;28;19928;-73
2023/03/26 23:30:52;;;;;;;;;;;5.10;99.90;;;;;;8394256;28;19959;-73
2023/03/26 23:34:54;;;;;;;;;;;5.00;99.90;;;;;;8377527;28;19979;-73
2023/03/26 23:38:57;;;;;;;;;;;4.90;99.90;;;;;;8384590;28;19935;-73
2023/03/26 23:42:59;;;;;;;;;;;4.80;99.90;;;;;;8379776;28;19975;-73
2023/03/26 23:47:01;;;;;;;;;;;4.80;99.90;;;;;;8384118;28;19929;-73
2023/03/26 23:51:03;;;;;;;;;;;4.80;99.90;;;;;;8379896;28;19971;-73
2023/03/26 23:55:05;;;;;;;;;;;4.70;99.90;;;;;;8389672;28;19967;-73
2023/03/26 23:59:07;;;;;;;;;;;4.70;99.90;;;;;;8394841;28;19947;-73
